Time;durP1;ratioP1;P1;durP2;ratioP2;P2;SDS_P1;SDS_P2;PMS_P1;PMS_P2;Temp;Humidity;BMP_temperature;BMP_pressure;BME280_temperature;BME280_humidity;BME280_pressure;Samples;Min_cycle;Max_cycle;Signal;HPM_P1;HPM_P2
2022/04/29 00:00:38;;;;;;;;;;;14.70;99.90;;;;;;5071410;28;20409;-89
2022/04/29 00:03:05;;;;;;;;;;;14.70;99.90;;;;;;5071120;28;19909;-89
2022/04/29 00:05:30;;;;;;;;;;;14.70;99.90;;;;;;5052859;28;20284;-90
2022/04/29 00:07:56;;;;;;;;;;;14.70;99.90;;;;;;5052376;28;19909;-90
2022/04/29 00:10:21;;;;;;;;;;;14.70;99.90;;;;;;5071025;28;20377;-89
2022/04/29 00:12:48;;;;;;;;;;;14.70;99.90;;;;;;5053246;28;20405;-90
2022/04/29 00:15:14;;;;;;;;;;;14.70;99.90;;;;;;5071081;28;20399;-89
2022/04/29 00:17:40;;;;;;;;;;;14.60;99.90;;;;;;5053275;28;20524;-90
2022/04/29 00:20:06;;;;;;;;;;;14.60;99.90;;;;;;5052882;28;19928;-89
2022/04/29 00:22:32;;;;;;;;;;;14.60;99.90;;;;;;5070784;28;20394;-90
2022/04/29 00:24:58;;;;;;;;;;;14.50;99.90;;;;;;5070606;28;19923;-90
2022/04/29 00:27:23;;;;;;;;;;;14.50;99.90;;;;;;5053959;28;19934;-90
2022/04/29 00:29:49;;;;;;;;;;;14.50;99.90;;;;;;5055391;28;19909;-90
2022/04/29 00:32:15;;;;;;;;;;;14.50;99.90;;;;;;5052778;28;19908;-89
2022/04/29 00:34:41;;;;;;;;;;;14.50;99.90;;;;;;5052434;28;19908;-89
2022/04/29 00:37:06;;;;;;;;;;;14.40;99.90;;;;;;5052697;28;19908;-90
2022/04/29 00:39:32;;;;;;;;;;;14.40;99.90;;;;;;5070597;28;20318;-89
2022/04/29 00:41:58;;;;;;;;;;;14.40;99.90;;;;;;5071135;28;19916;-90
2022/04/29 00:44:23;;;;;;;;;;;14.40;99.90;;;;;;5070740;28;19948;-90
2022/04/29 00:46:50;;;;;;;;;;;14.40;99.90;;;;;;5052959;28;20428;-89
2022/04/29 00:49:17;;;;;;;;;;;14.40;99.90;;;;;;5052569;28;19955;-89
2022/04/29 00:51:43;;;;;;;;;;;14.40;99.90;;;;;;5070524;28;19908;-89
2022/04/29 00:54:11;;;;;;;;;;;14.40;99.90;;;;;;5070427;28;19930;-90
2022/04/29 00:56:38;;;;;;;;;;;14.40;99.90;;;;;;5052395;28;20586;-90
2022/04/29 00:59:15;;;;;;;;;;;14.40;99.90;;;;;;5070391;28;20408;-89
2022/04/29 01:01:43;;;;;;;;;;;14.40;99.90;;;;;;5063716;28;20064;-90
2022/04/29 01:04:11;;;;;;;;;;;14.30;99.90;;;;;;5069834;28;19916;-90
2022/04/29 01:06:37;;;;;;;;;;;14.40;99.90;;;;;;5052280;28;19916;-90
2022/04/29 01:09:02;;;;;;;;;;;14.30;99.90;;;;;;5070258;28;19909;-90
2022/04/29 01:11:28;;;;;;;;;;;14.30;99.90;;;;;;5070340;28;19909;-90
2022/04/29 01:13:54;;;;;;;;;;;14.30;99.90;;;;;;5070758;28;19919;-90
2022/04/29 01:16:21;;;;;;;;;;;14.30;99.90;;;;;;5052106;28;19915;-89
2022/04/29 01:18:47;;;;;;;;;;;14.30;99.90;;;;;;5072436;28;19920;-90
2022/04/29 01:21:13;;;;;;;;;;;14.30;99.90;;;;;;5074160;28;20048;-90
2022/04/29 01:23:38;;;;;;;;;;;14.20;99.90;;;;;;5074168;28;20058;-90
2022/04/29 01:26:07;;;;;;;;;;;14.20;99.90;;;;;;5055967;28;19927;-89
2022/04/29 01:28:34;;;;;;;;;;;14.20;99.90;;;;;;5056309;28;20372;-89
2022/04/29 01:30:59;;;;;;;;;;;14.20;99.90;;;;;;5074235;28;19916;-89
2022/04/29 01:33:29;;;;;;;;;;;14.20;99.90;;;;;;5073806;28;19908;-90
2022/04/29 01:35:55;;;;;;;;;;;14.20;99.90;;;;;;5073986;28;19954;-89
2022/04/29 01:38:21;;;;;;;;;;;14.20;99.90;;;;;;5055884;28;20543;-89
2022/04/29 01:40:46;;;;;;;;;;;14.10;99.90;;;;;;5073986;28;20217;-90
2022/04/29 01:43:12;;;;;;;;;;;14.10;99.90;;;;;;5055920;28;19954;-89
2022/04/29 01:45:38;;;;;;;;;;;14.20;99.90;;;;;;5077011;28;19935;-90
2022/04/29 01:48:03;;;;;;;;;;;14.20;99.90;;;;;;5056004;28;19938;-90
2022/04/29 01:50:29;;;;;;;;;;;14.20;99.90;;;;;;5073531;28;19908;-89
2022/04/29 01:52:54;;;;;;;;;;;14.20;99.90;;;;;;5055815;28;19951;-88
2022/04/29 01:55:20;;;;;;;;;;;14.20;99.90;;;;;;5073717;28;19909;-90
2022/04/29 01:57:48;;;;;;;;;;;14.20;99.90;;;;;;5055569;28;19916;-90
2022/04/29 02:00:14;;;;;;;;;;;14.20;99.90;;;;;;5073529;28;19916;-90
2022/04/29 02:02:39;;;;;;;;;;;14.10;99.90;;;;;;5055813;28;20010;-89
2022/04/29 02:05:05;;;;;;;;;;;14.10;99.90;;;;;;5073190;28;19916;-89
2022/04/29 02:07:30;;;;;;;;;;;14.10;99.90;;;;;;5073532;28;19916;-89
2022/04/29 02:09:56;;;;;;;;;;;14.00;99.90;;;;;;5073489;28;20422;-91
2022/04/29 02:12:25;;;;;;;;;;;14.00;99.90;;;;;;5055709;28;20357;-88
2022/04/29 02:14:50;;;;;;;;;;;14.00;99.90;;;;;;5073955;28;19948;-90
2022/04/29 02:17:16;;;;;;;;;;;14.00;99.90;;;;;;5057026;28;19945;-89
2022/04/29 02:19:42;;;;;;;;;;;14.00;99.90;;;;;;5074872;28;20054;-90
2022/04/29 02:22:09;;;;;;;;;;;14.00;99.90;;;;;;5073262;28;20011;-89
2022/04/29 02:24:34;;;;;;;;;;;14.00;99.90;;;;;;5073088;28;19976;-90
2022/04/29 02:27:02;;;;;;;;;;;14.00;99.90;;;;;;5055237;28;20380;-89
2022/04/29 02:29:28;;;;;;;;;;;14.00;99.90;;;;;;5071927;28;19913;-91
2022/04/29 02:31:53;;;;;;;;;;;14.00;99.90;;;;;;5054935;28;19954;-91
2022/04/29 02:34:19;;;;;;;;;;;14.00;99.90;;;;;;5072626;28;19955;-90
2022/04/29 02:36:45;;;;;;;;;;;14.00;99.90;;;;;;5055216;28;20007;-88
2022/04/29 02:39:11;;;;;;;;;;;14.00;99.90;;;;;;5073025;28;19913;-89
2022/04/29 02:41:40;;;;;;;;;;;14.00;99.90;;;;;;5054910;28;19986;-89
2022/04/29 02:44:05;;;;;;;;;;;14.00;99.90;;;;;;5054701;28;20372;-91
2022/04/29 02:46:31;;;;;;;;;;;14.00;99.90;;;;;;5054851;28;19915;-89
2022/04/29 02:48:57;;;;;;;;;;;14.00;99.90;;;;;;5072461;28;19978;-91
2022/04/29 02:51:22;;;;;;;;;;;14.00;99.90;;;;;;5054520;28;19948;-89
2022/04/29 02:53:48;;;;;;;;;;;14.00;99.90;;;;;;5054620;28;19912;-88
2022/04/29 02:56:13;;;;;;;;;;;14.00;99.90;;;;;;5072658;28;19913;-90
2022/04/29 02:58:39;;;;;;;;;;;14.00;99.90;;;;;;5054787;28;19908;-91
2022/04/29 03:01:04;;;;;;;;;;;14.00;99.90;;;;;;5072428;28;19920;-89
2022/04/29 03:03:31;;;;;;;;;;;14.00;99.90;;;;;;5072328;28;20041;-89
2022/04/29 03:05:56;;;;;;;;;;;14.10;99.90;;;;;;5054343;28;19908;-89
2022/04/29 03:08:22;;;;;;;;;;;14.00;99.90;;;;;;5054345;28;20246;-89
2022/04/29 03:10:48;;;;;;;;;;;14.00;99.90;;;;;;5054288;28;19928;-91
2022/04/29 03:13:14;;;;;;;;;;;14.00;99.90;;;;;;5054247;28;19920;-90
2022/04/29 03:15:40;;;;;;;;;;;14.00;99.90;;;;;;5054325;28;20091;-88
2022/04/29 03:18:17;;;;;;;;;;;14.00;99.90;;;;;;5072330;28;19944;-89
2022/04/29 03:20:45;;;;;;;;;;;14.00;99.90;;;;;;5072243;28;20380;-90
2022/04/29 03:23:11;;;;;;;;;;;14.00;99.90;;;;;;5053950;28;19908;-89
2022/04/29 03:25:37;;;;;;;;;;;14.00;99.90;;;;;;5073622;28;20304;-90
2022/04/29 03:28:05;;;;;;;;;;;14.00;99.90;;;;;;5072091;28;19909;-91
2022/04/29 03:30:30;;;;;;;;;;;14.00;99.90;;;;;;5071995;28;19991;-89
2022/04/29 03:32:57;;;;;;;;;;;14.00;99.90;;;;;;5072190;28;19991;-91
2022/04/29 03:35:23;;;;;;;;;;;14.00;99.90;;;;;;5065234;28;20406;-89
2022/04/29 03:37:51;;;;;;;;;;;14.00;99.90;;;;;;5071738;28;19909;-89
2022/04/29 03:40:23;;;;;;;;;;;13.90;99.90;;;;;;5053974;28;19920;-91
2022/04/29 03:42:50;;;;;;;;;;;13.90;99.90;;;;;;5074188;28;19908;-89
2022/04/29 03:45:15;;;;;;;;;;;13.90;99.90;;;;;;5053454;28;19958;-90
2022/04/29 03:47:41;;;;;;;;;;;13.90;99.90;;;;;;5071557;28;19908;-89
2022/04/29 03:50:07;;;;;;;;;;;13.90;99.90;;;;;;5053100;28;20300;-89
2022/04/29 03:52:32;;;;;;;;;;;13.80;99.90;;;;;;5071550;28;19915;-89
2022/04/29 03:54:58;;;;;;;;;;;13.80;99.90;;;;;;5053837;28;20050;-88
2022/04/29 03:57:24;;;;;;;;;;;13.80;99.90;;;;;;5071319;28;20395;-90
2022/04/29 03:59:49;;;;;;;;;;;13.80;99.90;;;;;;5071291;28;19919;-89
2022/04/29 04:02:15;;;;;;;;;;;13.80;99.90;;;;;;5053175;28;19923;-91
2022/04/29 04:04:41;;;;;;;;;;;13.70;99.90;;;;;;5070787;28;20003;-91
2022/04/29 04:07:07;;;;;;;;;;;13.70;99.90;;;;;;5073334;28;20629;-90
2022/04/29 04:09:32;;;;;;;;;;;13.60;99.90;;;;;;5073243;28;19909;-88
2022/04/29 04:11:58;;;;;;;;;;;13.60;99.90;;;;;;5071400;28;20319;-89
2022/04/29 04:14:23;;;;;;;;;;;13.60;99.90;;;;;;5052730;28;19916;-88
2022/04/29 04:16:49;;;;;;;;;;;13.50;99.90;;;;;;5070927;28;19927;-88
2022/04/29 04:19:14;;;;;;;;;;;13.50;99.90;;;;;;5070420;28;20129;-88
2022/04/29 04:21:40;;;;;;;;;;;13.50;99.90;;;;;;5056419;28;19920;-87
2022/04/29 04:24:06;;;;;;;;;;;13.40;99.90;;;;;;5070341;28;19908;-88
2022/04/29 04:26:32;;;;;;;;;;;13.40;99.90;;;;;;5052006;28;19974;-87
2022/04/29 04:28:58;;;;;;;;;;;13.30;99.90;;;;;;5070147;28;19951;-87
2022/04/29 04:31:24;;;;;;;;;;;13.30;99.90;;;;;;5069923;28;19940;-87
2022/04/29 04:33:50;;;;;;;;;;;13.30;99.90;;;;;;5069826;28;19908;-87
2022/04/29 04:36:16;;;;;;;;;;;13.20;99.90;;;;;;5057488;28;19908;-86
2022/04/29 04:38:42;;;;;;;;;;;13.20;99.90;;;;;;5063858;28;19905;-86
2022/04/29 04:41:08;;;;;;;;;;;13.10;99.90;;;;;;5069742;28;19913;-87
2022/04/29 04:43:34;;;;;;;;;;;13.10;99.90;;;;;;5081185;28;20120;-87
2022/04/29 04:46:00;;;;;;;;;;;13.10;99.90;;;;;;5070810;28;19909;-87
2022/04/29 04:48:26;;;;;;;;;;;13.00;99.90;;;;;;5069535;28;19931;-86
2022/04/29 04:50:51;;;;;;;;;;;13.00;99.90;;;;;;5068607;28;20254;-87
2022/04/29 04:53:17;;;;;;;;;;;13.00;99.90;;;;;;5069247;28;19917;-87
2022/04/29 04:55:42;;;;;;;;;;;13.00;99.90;;;;;;5069232;28;19908;-86
2022/04/29 04:58:09;;;;;;;;;;;13.00;99.90;;;;;;5069936;28;19999;-86
2022/04/29 05:00:35;;;;;;;;;;;12.90;99.90;;;;;;5052797;28;19916;-87
2022/04/29 05:03:01;;;;;;;;;;;12.90;99.90;;;;;;5052116;28;19936;-87
2022/04/29 05:05:26;;;;;;;;;;;12.90;99.90;;;;;;5051798;28;19956;-87
2022/04/29 05:07:52;;;;;;;;;;;12.90;99.90;;;;;;5052302;28;19985;-87
2022/04/29 05:10:18;;;;;;;;;;;12.90;99.90;;;;;;5070432;28;19915;-86
2022/04/29 05:12:47;;;;;;;;;;;12.90;99.90;;;;;;5052269;28;20321;-87
2022/04/29 05:15:14;;;;;;;;;;;12.80;99.90;;;;;;5052078;28;19912;-86
2022/04/29 05:17:40;;;;;;;;;;;12.80;99.90;;;;;;5051858;28;19961;-87
2022/04/29 05:20:10;;;;;;;;;;;12.80;99.90;;;;;;5069564;28;19921;-87
2022/04/29 05:22:36;;;;;;;;;;;12.80;99.90;;;;;;5070206;28;19912;-87
2022/04/29 05:25:01;;;;;;;;;;;12.80;99.90;;;;;;5069880;28;20331;-87
2022/04/29 05:27:27;;;;;;;;;;;12.80;99.90;;;;;;5070038;28;19917;-86
2022/04/29 05:29:52;;;;;;;;;;;12.80;99.90;;;;;;5070171;28;20485;-87
2022/04/29 05:32:18;;;;;;;;;;;12.80;99.90;;;;;;5069943;28;19908;-88
2022/04/29 05:34:44;;;;;;;;;;;12.80;99.90;;;;;;5069895;28;19919;-86
2022/04/29 05:37:10;;;;;;;;;;;12.80;99.90;;;;;;5066818;28;19913;-85
2022/04/29 05:42:22;;;;;;;;;;;12.90;99.90;;;;;;5061608;28;20137;-85
2022/04/29 05:44:48;;;;;;;;;;;13.00;99.90;;;;;;5046366;28;19919;-84
2022/04/29 05:47:14;;;;;;;;;;;13.00;99.90;;;;;;5059575;28;20395;-85
2022/04/29 05:49:39;;;;;;;;;;;13.10;99.90;;;;;;5067539;28;19955;-86
2022/04/29 05:52:06;;;;;;;;;;;13.10;99.90;;;;;;5065236;28;20411;-85
2022/04/29 05:54:32;;;;;;;;;;;13.20;99.90;;;;;;5050758;28;19954;-85
2022/04/29 05:56:58;;;;;;;;;;;13.20;99.90;;;;;;5069308;28;19909;-84
2022/04/29 05:59:23;;;;;;;;;;;13.30;99.90;;;;;;5051308;28;19908;-84
2022/04/29 06:01:49;;;;;;;;;;;13.30;99.90;;;;;;5068548;28;20423;-83
2022/04/29 06:04:15;;;;;;;;;;;13.40;99.90;;;;;;5052332;28;19908;-84
2022/04/29 06:06:40;;;;;;;;;;;13.50;99.90;;;;;;5072788;28;19909;-85
2022/04/29 06:09:06;;;;;;;;;;;13.50;99.90;;;;;;5072903;28;19908;-85
2022/04/29 06:11:31;;;;;;;;;;;13.50;99.90;;;;;;5072289;28;20266;-85
2022/04/29 06:13:57;;;;;;;;;;;13.60;99.90;;;;;;5072373;28;20389;-86
2022/04/29 06:16:22;;;;;;;;;;;13.70;99.90;;;;;;5072763;28;19909;-86
2022/04/29 06:18:48;;;;;;;;;;;13.70;99.90;;;;;;5072520;28;19915;-85
2022/04/29 06:21:16;;;;;;;;;;;13.80;99.90;;;;;;5072635;28;19917;-85
2022/04/29 06:23:45;;;;;;;;;;;13.80;99.90;;;;;;5072160;28;20381;-85
2022/04/29 06:26:11;;;;;;;;;;;13.80;99.90;;;;;;5071711;28;19920;-85
2022/04/29 06:28:37;;;;;;;;;;;13.90;99.90;;;;;;5072206;28;20399;-85
2022/04/29 06:31:02;;;;;;;;;;;14.00;99.90;;;;;;5054342;28;19908;-86
2022/04/29 06:33:31;;;;;;;;;;;14.10;99.90;;;;;;5071989;28;20289;-85
2022/04/29 06:35:57;;;;;;;;;;;14.20;99.90;;;;;;5072500;28;20145;-85
2022/04/29 06:38:23;;;;;;;;;;;14.30;99.90;;;;;;5072467;28;20437;-86
2022/04/29 06:40:50;;;;;;;;;;;14.30;99.90;;;;;;5072234;28;19922;-86
2022/04/29 06:43:16;;;;;;;;;;;14.40;99.90;;;;;;5071803;28;19912;-86
2022/04/29 06:45:42;;;;;;;;;;;14.50;99.90;;;;;;5072213;28;19908;-86
2022/04/29 06:48:08;;;;;;;;;;;14.50;99.90;;;;;;5071349;28;19908;-85
2022/04/29 06:50:33;;;;;;;;;;;14.50;99.90;;;;;;5072226;28;19916;-85
2022/04/29 06:52:59;;;;;;;;;;;14.70;99.90;;;;;;5053415;28;19922;-85
2022/04/29 06:55:24;;;;;;;;;;;14.70;99.90;;;;;;5072119;28;20003;-86
2022/04/29 06:57:50;;;;;;;;;;;14.80;99.90;;;;;;5071278;28;20035;-88
2022/04/29 07:00:16;;;;;;;;;;;14.90;99.90;;;;;;5071978;28;20019;-86
2022/04/29 07:02:42;;;;;;;;;;;15.00;99.90;;;;;;5071371;28;19916;-85
2022/04/29 07:05:08;;;;;;;;;;;15.10;99.90;;;;;;5071328;28;20352;-86
2022/04/29 07:07:34;;;;;;;;;;;15.10;99.90;;;;;;5072615;28;19913;-88
2022/04/29 07:09:59;;;;;;;;;;;15.20;99.90;;;;;;5071841;28;19991;-88
2022/04/29 07:12:25;;;;;;;;;;;15.20;99.90;;;;;;5071492;28;20352;-88
2022/04/29 07:14:52;;;;;;;;;;;15.30;99.90;;;;;;5072173;28;20269;-86
2022/04/29 07:17:18;;;;;;;;;;;15.40;99.90;;;;;;5064742;28;19908;-89
2022/04/29 07:19:44;;;;;;;;;;;15.50;99.90;;;;;;5071236;28;19915;-87
2022/04/29 07:22:09;;;;;;;;;;;15.50;99.90;;;;;;5054462;28;19913;-87
2022/04/29 07:24:35;;;;;;;;;;;15.50;99.90;;;;;;5076333;28;19919;-87
2022/04/29 07:27:01;;;;;;;;;;;15.60;99.90;;;;;;5071574;28;19916;-89
2022/04/29 07:29:26;;;;;;;;;;;15.60;99.90;;;;;;5053034;28;19966;-88
2022/04/29 07:31:52;;;;;;;;;;;15.60;99.90;;;;;;5072760;28;19919;-88
2022/04/29 07:34:17;;;;;;;;;;;15.70;99.90;;;;;;5052950;28;19908;-87
2022/04/29 07:42:11;;;;;;;;;;;16.10;99.90;;;;;;5070651;28;19923;-84
2022/04/29 07:44:37;;;;;;;;;;;16.20;99.90;;;;;;5070696;28;20003;-86
2022/04/29 07:47:03;;;;;;;;;;;16.30;99.90;;;;;;5053240;28;20122;-86
2022/04/29 07:49:28;;;;;;;;;;;16.40;99.90;;;;;;5052901;28;19940;-86
2022/04/29 07:51:54;;;;;;;;;;;16.50;99.90;;;;;;5052477;28;19955;-86
2022/04/29 07:54:19;;;;;;;;;;;16.60;99.90;;;;;;5070919;28;19962;-86
2022/04/29 07:56:45;;;;;;;;;;;16.50;99.90;;;;;;5071311;28;20428;-86
2022/04/29 07:59:10;;;;;;;;;;;16.60;99.90;;;;;;5070565;28;20277;-86
2022/04/29 08:01:37;;;;;;;;;;;16.60;99.90;;;;;;5070204;28;20420;-85
2022/04/29 08:04:03;;;;;;;;;;;16.70;99.90;;;;;;5071046;28;19909;-87
2022/04/29 08:06:28;;;;;;;;;;;16.80;99.90;;;;;;5071645;28;19905;-87
2022/04/29 08:08:54;;;;;;;;;;;16.90;99.90;;;;;;5054846;28;19920;-86
2022/04/29 08:11:19;;;;;;;;;;;16.90;99.90;;;;;;5070439;28;19931;-87
2022/04/29 08:13:45;;;;;;;;;;;17.10;99.90;;;;;;5070399;28;19934;-87
2022/04/29 08:16:15;;;;;;;;;;;17.20;99.90;;;;;;5071253;28;19908;-86
2022/04/29 08:18:40;;;;;;;;;;;17.30;99.90;;;;;;5071711;28;20003;-86
2022/04/29 08:21:06;;;;;;;;;;;17.30;99.90;;;;;;5070844;28;20411;-87
2022/04/29 08:23:32;;;;;;;;;;;17.30;99.90;;;;;;5071827;28;19909;-87
2022/04/29 08:25:58;;;;;;;;;;;17.50;99.90;;;;;;5052460;28;20015;-88
2022/04/29 08:28:25;;;;;;;;;;;17.60;99.90;;;;;;5052345;28;19995;-87
2022/04/29 08:30:51;;;;;;;;;;;17.70;99.90;;;;;;5071439;28;19909;-88
2022/04/29 08:33:17;;;;;;;;;;;17.80;99.90;;;;;;5069493;28;19995;-87
2022/04/29 08:35:43;;;;;;;;;;;17.90;99.90;;;;;;5071277;28;20265;-85
2022/04/29 08:38:11;;;;;;;;;;;18.00;99.90;;;;;;5071140;28;20246;-85
2022/04/29 08:40:41;;;;;;;;;;;18.00;99.90;;;;;;5070494;28;19921;-87
2022/04/29 08:43:07;;;;;;;;;;;18.00;99.90;;;;;;5069920;28;19908;-89
2022/04/29 08:45:32;;;;;;;;;;;17.90;99.90;;;;;;5052255;28;20377;-88
2022/04/29 08:47:59;;;;;;;;;;;18.00;99.90;;;;;;5070085;28;20286;-86
2022/04/29 08:50:26;;;;;;;;;;;18.10;99.90;;;;;;5070882;28;19919;-90
2022/04/29 08:52:53;;;;;;;;;;;18.20;99.90;;;;;;5069482;28;20319;-84
2022/04/29 09:00:48;;;;;;;;;;;18.40;99.90;;;;;;5069930;28;19962;-83
2022/04/29 09:03:16;;;;;;;;;;;18.50;99.90;;;;;;5068994;28;19912;-83
2022/04/29 09:05:42;;;;;;;;;;;18.40;99.90;;;;;;5069662;28;19912;-84
2022/04/29 09:08:10;;;;;;;;;;;18.30;99.90;;;;;;5050986;28;19912;-82
2022/04/29 09:10:36;;;;;;;;;;;18.10;99.90;;;;;;5071032;28;19916;-82
2022/04/29 09:13:12;;;;;;;;;;;18.10;99.90;;;;;;5069702;28;19908;-82
2022/04/29 09:15:45;;;;;;;;;;;18.10;99.90;;;;;;5069625;28;19908;-82
2022/04/29 09:18:11;;;;;;;;;;;18.20;99.90;;;;;;5051564;28;19999;-82
2022/04/29 09:20:37;;;;;;;;;;;18.40;99.90;;;;;;5069670;28;20046;-82
2022/04/29 09:23:02;;;;;;;;;;;18.50;99.90;;;;;;5069442;28;19964;-82
2022/04/29 09:25:33;;;;;;;;;;;18.50;99.90;;;;;;5069817;28;19991;-85
2022/04/29 09:28:00;;;;;;;;;;;18.30;99.90;;;;;;5069614;28;20412;-82
2022/04/29 09:30:32;;;;;;;;;;;18.30;99.90;;;;;;5063107;28;19909;-82
2022/04/29 09:32:58;;;;;;;;;;;18.20;99.90;;;;;;5069865;28;19908;-82
2022/04/29 09:35:40;;;;;;;;;;;18.30;99.90;;;;;;5070521;28;20254;-82
2022/04/29 09:40:51;;;;;;;;;;;18.30;99.90;;;;;;5073300;28;19932;-82
2022/04/29 09:43:17;;;;;;;;;;;18.40;99.90;;;;;;5072579;28;20317;-81
2022/04/29 09:45:42;;;;;;;;;;;18.30;99.90;;;;;;5073081;28;20054;-82
2022/04/29 09:48:09;;;;;;;;;;;18.30;99.90;;;;;;5054828;28;19936;-82
2022/04/29 09:51:04;;;;;;;;;;;18.30;99.90;;;;;;5072958;28;20401;-83
2022/04/29 09:53:30;;;;;;;;;;;18.30;99.90;;;;;;5051341;28;20288;-82
2022/04/29 09:56:06;;;;;;;;;;;18.50;99.90;;;;;;5073683;28;19940;-82
2022/04/29 09:58:32;;;;;;;;;;;18.70;99.90;;;;;;5049450;28;20272;-83
2022/04/29 10:00:59;;;;;;;;;;;19.00;99.90;;;;;;5073517;28;19917;-82
2022/04/29 10:03:25;;;;;;;;;;;19.10;99.90;;;;;;5072011;28;19920;-82
2022/04/29 10:05:51;;;;;;;;;;;19.20;99.90;;;;;;5072942;28;19909;-82
2022/04/29 10:08:17;;;;;;;;;;;19.20;99.90;;;;;;5073161;28;20216;-82
2022/04/29 10:10:43;;;;;;;;;;;19.30;99.90;;;;;;5071987;28;19970;-82
2022/04/29 10:13:08;;;;;;;;;;;19.30;99.90;;;;;;5072348;28;20447;-81
2022/04/29 10:15:35;;;;;;;;;;;19.40;99.90;;;;;;5073114;28;19920;-82
2022/04/29 10:23:32;;;;;;;;;;;19.30;99.90;;;;;;5072253;28;19914;-81
2022/04/29 10:25:58;;;;;;;;;;;19.50;99.90;;;;;;5072249;28;19920;-81
2022/04/29 10:28:24;;;;;;;;;;;19.50;99.90;;;;;;5072524;28;19915;-81
2022/04/29 10:31:03;;;;;;;;;;;19.70;99.90;;;;;;5072864;28;19908;-81
2022/04/29 10:33:29;;;;;;;;;;;19.80;99.90;;;;;;5071633;28;19909;-81
2022/04/29 10:35:58;;;;;;;;;;;19.90;99.90;;;;;;5072441;28;19909;-81
2022/04/29 10:38:24;;;;;;;;;;;20.10;99.90;;;;;;5072456;28;20369;-81
2022/04/29 10:41:13;;;;;;;;;;;20.00;99.90;;;;;;5072114;28;20008;-82
2022/04/29 10:44:08;;;;;;;;;;;20.00;99.90;;;;;;5058245;28;20326;-82
2022/04/29 10:46:39;;;;;;;;;;;20.10;99.90;;;;;;5050624;28;20376;-81
2022/04/29 10:49:19;;;;;;;;;;;20.30;99.90;;;;;;5071859;28;19912;-81
2022/04/29 10:51:46;;;;;;;;;;;20.50;99.90;;;;;;5070920;28;19915;-81
2022/04/29 10:54:12;;;;;;;;;;;20.40;99.90;;;;;;5072323;28;19939;-81
2022/04/29 10:56:38;;;;;;;;;;;20.40;99.90;;;;;;5072007;28;20361;-81
2022/04/29 10:59:03;;;;;;;;;;;20.40;99.90;;;;;;5072250;28;19939;-82
2022/04/29 11:01:33;;;;;;;;;;;20.50;99.90;;;;;;5071944;28;19916;-82
2022/04/29 11:03:59;;;;;;;;;;;20.40;99.90;;;;;;5071303;28;19946;-82
2022/04/29 11:06:34;;;;;;;;;;;20.40;99.90;;;;;;5053849;28;20387;-82
2022/04/29 11:09:00;;;;;;;;;;;20.50;99.90;;;;;;5071936;28;19909;-82
2022/04/29 11:11:46;;;;;;;;;;;20.50;99.90;;;;;;5071856;28;20288;-82
2022/04/29 11:14:12;;;;;;;;;;;20.60;99.90;;;;;;5071095;28;19966;-81
2022/04/29 11:16:48;;;;;;;;;;;20.60;99.90;;;;;;5071508;28;20261;-82
2022/04/29 11:19:18;;;;;;;;;;;20.60;99.90;;;;;;5071255;28;19908;-82
2022/04/29 11:24:41;;;;;;;;;;;20.80;99.90;;;;;;5071473;28;20371;-82
2022/04/29 11:27:06;;;;;;;;;;;20.90;99.90;;;;;;5071621;28;19921;-81
2022/04/29 11:29:40;;;;;;;;;;;21.10;99.90;;;;;;5053417;28;20304;-82
2022/04/29 11:32:05;;;;;;;;;;;21.10;99.90;;;;;;5070997;28;20000;-81
2022/04/29 11:34:31;;;;;;;;;;;21.20;99.90;;;;;;5046422;28;20003;-81
2022/04/29 11:36:56;;;;;;;;;;;21.40;99.90;;;;;;5071092;28;19908;-82
2022/04/29 11:39:23;;;;;;;;;;;21.50;99.90;;;;;;5071155;28;19983;-81
2022/04/29 11:41:55;;;;;;;;;;;21.60;99.90;;;;;;5070893;28;19969;-80
2022/04/29 11:44:34;;;;;;;;;;;21.70;99.90;;;;;;5071217;28;20003;-80
2022/04/29 11:46:59;;;;;;;;;;;21.70;99.90;;;;;;5071415;28;19908;-80
2022/04/29 11:49:32;;;;;;;;;;;22.10;99.90;;;;;;5070773;28;19970;-81
2022/04/29 11:52:16;;;;;;;;;;;22.40;99.90;;;;;;5070553;28;20159;-80
2022/04/29 11:54:48;;;;;;;;;;;22.40;99.90;;;;;;5070836;28;19908;-80
2022/04/29 11:57:14;;;;;;;;;;;22.30;99.90;;;;;;5070765;28;20281;-80
2022/04/29 11:59:40;;;;;;;;;;;22.40;99.90;;;;;;5070797;28;19909;-81
2022/04/29 12:02:08;;;;;;;;;;;22.60;99.90;;;;;;5069914;28;19916;-79
2022/04/29 12:04:34;;;;;;;;;;;22.80;99.90;;;;;;5070458;28;20404;-79
2022/04/29 12:06:59;;;;;;;;;;;22.80;99.90;;;;;;5070795;28;19908;-80
2022/04/29 12:09:32;;;;;;;;;;;22.80;99.40;;;;;;5070652;28;20086;-79
2022/04/29 12:11:59;;;;;;;;;;;22.80;99.90;;;;;;5070054;28;20400;-79
2022/04/29 12:14:25;;;;;;;;;;;22.70;99.90;;;;;;5073217;28;19909;-79
2022/04/29 12:16:51;;;;;;;;;;;22.80;99.90;;;;;;5070410;28;19909;-79
2022/04/29 12:19:18;;;;;;;;;;;22.60;99.90;;;;;;5070141;28;20399;-79
2022/04/29 12:21:56;;;;;;;;;;;22.80;99.90;;;;;;5070397;28;19927;-82
2022/04/29 12:24:22;;;;;;;;;;;22.70;99.90;;;;;;5070490;28;20349;-80
2022/04/29 12:27:07;;;;;;;;;;;22.80;99.90;;;;;;5070029;28;19921;-81
2022/04/29 12:29:33;;;;;;;;;;;23.10;99.90;;;;;;5070195;28;20063;-79
2022/04/29 12:35:11;;;;;;;;;;;23.40;99.80;;;;;;5068781;28;19961;-83
2022/04/29 12:37:36;;;;;;;;;;;23.50;99.90;;;;;;5052238;28;19912;-79
2022/04/29 12:40:08;;;;;;;;;;;23.40;99.50;;;;;;5070203;28;19954;-80
2022/04/29 12:42:34;;;;;;;;;;;23.60;99.50;;;;;;5069624;28;19916;-80
2022/04/29 12:45:14;;;;;;;;;;;23.80;99.60;;;;;;5070083;28;19915;-82
2022/04/29 12:47:43;;;;;;;;;;;24.00;98.90;;;;;;5069613;28;19919;-82
2022/04/29 12:50:26;;;;;;;;;;;23.90;99.00;;;;;;5069862;28;19915;-81
2022/04/29 12:52:54;;;;;;;;;;;24.10;98.90;;;;;;5069331;28;19940;-79
2022/04/29 12:55:20;;;;;;;;;;;23.90;98.80;;;;;;5070324;28;20004;-79
2022/04/29 12:57:46;;;;;;;;;;;23.60;99.20;;;;;;5070013;28;19920;-78
2022/04/29 13:00:23;;;;;;;;;;;23.80;99.00;;;;;;5070930;28;19913;-80
2022/04/29 13:03:03;;;;;;;;;;;23.80;99.50;;;;;;5069011;28;20385;-80
2022/04/29 13:05:29;;;;;;;;;;;24.00;99.60;;;;;;5070031;28;20357;-79
2022/04/29 13:07:55;;;;;;;;;;;24.10;99.40;;;;;;5069490;28;19934;-79
2022/04/29 13:10:21;;;;;;;;;;;24.10;99.20;;;;;;5051665;28;19997;-79
2022/04/29 13:12:47;;;;;;;;;;;24.30;98.40;;;;;;5071233;28;19912;-79
2022/04/29 13:15:12;;;;;;;;;;;24.30;98.60;;;;;;5069233;28;19915;-78
2022/04/29 13:17:38;;;;;;;;;;;24.40;98.30;;;;;;5069307;28;20396;-80
2022/04/29 13:20:05;;;;;;;;;;;24.10;98.80;;;;;;5069655;28;19947;-78
2022/04/29 13:22:30;;;;;;;;;;;24.10;98.90;;;;;;5070086;28;20007;-78
2022/04/29 13:24:58;;;;;;;;;;;23.80;99.30;;;;;;5069280;28;20008;-78
2022/04/29 13:27:23;;;;;;;;;;;23.40;99.60;;;;;;5069419;28;19913;-78
2022/04/29 13:29:49;;;;;;;;;;;23.90;99.50;;;;;;5051997;28;20399;-83
2022/04/29 13:32:15;;;;;;;;;;;24.10;98.90;;;;;;5069542;28;19995;-82
2022/04/29 13:34:40;;;;;;;;;;;23.90;98.80;;;;;;5069282;28;20357;-82
2022/04/29 13:37:06;;;;;;;;;;;23.90;99.50;;;;;;5052999;28;19931;-83
2022/04/29 13:39:31;;;;;;;;;;;24.00;98.30;;;;;;5069377;28;19915;-82
2022/04/29 13:41:57;;;;;;;;;;;24.30;98.30;;;;;;5069327;28;20097;-82
2022/04/29 13:44:22;;;;;;;;;;;25.00;98.00;;;;;;5063855;28;20008;-82
2022/04/29 13:46:48;;;;;;;;;;;25.30;97.20;;;;;;5071506;28;20284;-81
2022/04/29 13:49:13;;;;;;;;;;;25.30;96.70;;;;;;5068986;28;19916;-79
2022/04/29 13:51:39;;;;;;;;;;;25.40;96.40;;;;;;5075421;28;20027;-81
2022/04/29 13:54:04;;;;;;;;;;;25.50;95.80;;;;;;5068859;28;20397;-80
2022/04/29 13:56:30;;;;;;;;;;;25.90;95.50;;;;;;5064977;28;19956;-80
2022/04/29 13:58:56;;;;;;;;;;;26.00;96.00;;;;;;5053269;28;19908;-82
2022/04/29 14:01:22;;;;;;;;;;;26.80;96.20;;;;;;5069611;28;20378;-83
2022/04/29 14:03:47;;;;;;;;;;;28.50;95.60;;;;;;5070126;28;19911;-79
2022/04/29 14:06:13;;;;;;;;;;;29.30;94.70;;;;;;5073715;28;19908;-78
2022/04/29 14:08:38;;;;;;;;;;;30.70;93.30;;;;;;5074944;28;19916;-78
2022/04/29 14:11:04;;;;;;;;;;;31.20;92.60;;;;;;5072322;28;19913;-80
2022/04/29 14:13:29;;;;;;;;;;;32.50;92.20;;;;;;5070001;28;19909;-79
2022/04/29 14:15:55;;;;;;;;;;;32.60;90.60;;;;;;5071983;28;20241;-80
2022/04/29 14:18:20;;;;;;;;;;;33.70;90.30;;;;;;5069773;28;19908;-78
2022/04/29 14:20:46;;;;;;;;;;;33.00;89.50;;;;;;5076727;28;19920;-78
2022/04/29 14:23:12;;;;;;;;;;;33.30;90.30;;;;;;5079527;28;19909;-78
2022/04/29 14:25:37;;;;;;;;;;;33.10;89.50;;;;;;5057776;28;20180;-83
2022/04/29 14:28:03;;;;;;;;;;;32.90;90.20;;;;;;5073252;28;19912;-83
2022/04/29 14:30:31;;;;;;;;;;;32.80;90.00;;;;;;5054509;28;20934;-82
2022/04/29 14:32:56;;;;;;;;;;;32.90;89.70;;;;;;5054682;28;20285;-81
2022/04/29 14:35:22;;;;;;;;;;;31.90;90.50;;;;;;5073224;28;20185;-79
2022/04/29 14:37:50;;;;;;;;;;;33.00;89.50;;;;;;5064871;28;19909;-80
2022/04/29 14:40:15;;;;;;;;;;;32.60;88.80;;;;;;5072908;28;20135;-80
2022/04/29 14:42:41;;;;;;;;;;;32.90;88.90;;;;;;5072952;28;19908;-80